Time;durP1;ratioP1;P1;durP2;ratioP2;P2;SDS_P1;SDS_P2;PMS_P1;PMS_P2;Temp;Humidity;BMP_temperature;BMP_pressure;BME280_temperature;BME280_humidity;BME280_pressure;Samples;Min_cycle;Max_cycle;Signal;HPM_P1;HPM_P2
2022/05/25 00:01:01;;;;;;;4.00;3.70;;;;;;;9.96;100.00;101129.50;4875602;29;20068;-80
2022/05/25 00:03:32;;;;;;;3.92;3.63;;;;;;;9.96;100.00;101134.78;4835760;29;20192;-80
2022/05/25 00:06:04;;;;;;;4.70;3.70;;;;;;;9.96;100.00;101129.50;4875605;29;20045;-81
2022/05/25 00:08:40;;;;;;;4.80;3.63;;;;;;;9.95;100.00;101126.00;4847695;29;20045;-79
2022/05/25 00:11:09;;;;;;;3.58;3.30;;;;;;;9.94;100.00;101136.50;4871898;29;20062;-80
2022/05/25 00:13:38;;;;;;;7.97;4.40;;;;;;;9.94;100.00;101133.88;4842000;29;20049;-80
2022/05/25 00:16:06;;;;;;;4.82;3.63;;;;;;;9.93;100.00;101135.63;4840548;29;20415;-80
2022/05/25 00:18:35;;;;;;;4.60;3.55;;;;;;;9.95;100.00;101135.66;4838427;29;20061;-80
2022/05/25 00:21:03;;;;;;;3.83;3.53;;;;;;;9.92;100.00;101141.78;4867632;29;20507;-80
2022/05/25 00:23:33;;;;;;;5.18;3.35;;;;;;;9.91;100.00;101144.41;4871885;29;20466;-80
2022/05/25 00:26:01;;;;;;;4.55;3.50;;;;;;;9.89;100.00;101144.38;4887950;29;20049;-79
2022/05/25 00:28:30;;;;;;;7.18;4.22;;;;;;;9.90;100.00;101147.88;4847195;29;20061;-80
2022/05/25 00:31:04;;;;;;;5.20;4.07;;;;;;;9.89;100.00;101152.28;4879841;29;20056;-80
2022/05/25 00:33:33;;;;;;;4.60;3.83;;;;;;;9.87;100.00;101148.75;4820543;29;20057;-79
2022/05/25 00:36:02;;;;;;;3.95;3.65;;;;;;;9.83;100.00;101143.41;4879669;29;20518;-79
2022/05/25 00:38:30;;;;;;;4.53;4.03;;;;;;;9.80;100.00;101138.13;4822607;29;20053;-80
2022/05/25 00:40:59;;;;;;;4.03;3.72;;;;;;;9.79;100.00;101144.25;4856651;29;20052;-80
2022/05/25 00:43:27;;;;;;;4.25;3.92;;;;;;;9.78;100.00;101147.75;4842800;29;20280;-80
2022/05/25 00:46:01;;;;;;;5.75;3.90;;;;;;;9.73;100.00;101143.34;4875676;29;20029;-80
2022/05/25 00:48:45;;;;;;;7.68;4.38;;;;;;;9.72;100.00;101148.56;4845595;29;20076;-80
2022/05/25 00:51:21;;;;;;;4.78;4.30;;;;;;;9.70;100.00;101142.41;4832960;29;20041;-81
2022/05/25 00:53:59;;;;;;;5.38;4.45;;;;;;;9.65;100.00;101142.34;4865935;29;20534;-79
2022/05/25 00:56:31;;;;;;;4.68;4.25;;;;;;;9.64;100.00;101155.47;4871352;29;20192;-81
2022/05/25 00:59:07;;;;;;;7.13;4.57;;;;;;;9.64;100.00;101147.59;4858245;29;20042;-80
2022/05/25 01:01:36;;;;;;;7.75;4.50;;;;;;;9.62;100.00;101151.94;4855964;29;20261;-80
2022/05/25 01:04:05;;;;;;;6.60;4.45;;;;;;;9.61;100.00;101150.19;4859641;29;20048;-82
2022/05/25 01:06:43;;;;;;;4.72;4.32;;;;;;;9.58;100.00;101151.03;4850787;29;20052;-81
2022/05/25 01:09:30;;;;;;;6.63;4.65;;;;;;;9.56;100.00;101153.66;4855033;29;20060;-80
2022/05/25 01:12:09;;;;;;;5.68;4.65;;;;;;;9.56;100.00;101152.75;4876218;29;20029;-80
2022/05/25 01:15:01;;;;;;;5.50;4.70;;;;;;;9.54;100.00;101159.75;4875772;29;20064;-80
2022/05/25 01:18:01;;;;;;;7.75;5.88;;;;;;;9.54;100.00;101155.38;4841664;29;20061;-80
2022/05/25 01:20:42;;;;;;;7.55;5.63;;;;;;;9.54;100.00;101150.09;4843303;29;20248;-80
2022/05/25 01:23:22;;;;;;;8.00;5.85;;;;;;;9.54;100.00;101158.00;4863419;29;20507;-80
2022/05/25 01:25:54;;;;;;;6.60;6.03;;;;;;;9.54;100.00;101163.25;4871555;29;20053;-79
2022/05/25 01:29:01;;;;;;;9.63;6.30;;;;;;;9.56;100.00;101163.28;4871261;29;20053;-80
2022/05/25 01:31:45;;;;;;;8.95;6.88;;;;;;;9.53;100.00;101158.88;4851395;29;20057;-79
2022/05/25 01:34:31;;;;;;;10.23;7.00;;;;;;;9.53;100.00;101158.00;4851328;29;20056;-80
2022/05/25 01:37:16;;;;;;;7.28;6.40;;;;;;;9.52;100.00;101158.84;4860048;29;20266;-80
2022/05/25 01:39:53;;;;;;;7.60;7.00;;;;;;;9.52;100.00;101158.84;4844725;29;20049;-81
2022/05/25 01:42:30;;;;;;;6.97;6.28;;;;;;;9.50;100.00;101160.59;4871779;29;20037;-80
2022/05/25 01:45:02;;;;;;;7.22;6.25;;;;;;;9.51;100.00;101159.72;4870828;29;20057;-80
2022/05/25 01:47:33;;;;;;;8.52;6.80;;;;;;;9.50;100.00;101168.47;4864067;29;20061;-80
2022/05/25 01:50:08;;;;;;;9.18;6.63;;;;;;;9.50;100.00;101168.47;4845878;29;20619;-79
2022/05/25 01:52:44;;;;;;;8.65;6.63;;;;;;;9.50;100.00;101166.72;4864243;29;20411;-80
2022/05/25 01:55:20;;;;;;;7.88;6.78;;;;;;;9.50;100.00;101168.47;4873511;29;20052;-80
2022/05/25 01:57:54;;;;;;;7.88;7.10;;;;;;;9.49;100.00;101166.69;4867805;29;20048;-79
2022/05/25 02:00:46;;;;;;;10.70;6.95;;;;;;;9.45;100.00;101171.06;4869852;29;20049;-80
2022/05/25 02:06:28;;;;;;;9.77;7.63;;;;;;;9.40;100.00;101172.75;4846019;29;20049;-80
2022/05/25 02:09:06;;;;;;;9.65;7.57;;;;;;;9.39;100.00;101172.72;4864197;29;20265;-80
2022/05/25 02:11:39;;;;;;;14.00;8.13;;;;;;;9.39;100.00;101175.34;4857768;29;20037;-80
2022/05/25 02:14:36;;;;;;;8.75;7.53;;;;;;;9.37;100.00;101164.78;4872940;29;20376;-80
2022/05/25 02:17:33;;;;;;;9.63;7.85;;;;;;;9.35;100.00;101167.41;4856330;29;20288;-80
2022/05/25 02:20:09;;;;;;;9.52;8.52;;;;;;;9.33;100.00;101163.88;4868170;29;20065;-80
2022/05/25 02:22:44;;;;;;;10.15;7.68;;;;;;;9.33;100.00;101160.38;4868999;29;20045;-79
2022/05/25 02:25:24;;;;;;;9.10;8.30;;;;;;;9.32;100.00;101161.25;4858979;29;20058;-80
2022/05/25 02:28:27;;;;;;;9.40;7.97;;;;;;;9.30;100.00;101162.94;4856497;29;20060;-80
2022/05/25 02:31:00;;;;;;;9.48;8.52;;;;;;;9.27;100.00;101155.91;4855751;29;20267;-79
2022/05/25 02:33:39;;;;;;;10.20;9.18;;;;;;;9.27;100.00;101158.53;4873162;29;20406;-80
2022/05/25 02:36:10;;;;;;;9.52;8.63;;;;;;;9.25;100.00;101168.16;4859533;29;20057;-80
2022/05/25 02:38:41;;;;;;;9.48;8.60;;;;;;;9.26;100.00;101166.41;4853908;29;20049;-80
2022/05/25 02:41:14;;;;;;;13.27;10.57;;;;;;;9.24;100.00;101171.63;4854027;29;20045;-80
2022/05/25 02:43:43;;;;;;;10.25;9.25;;;;;;;9.25;100.00;101167.28;4860136;29;20049;-80
2022/05/25 02:46:11;;;;;;;13.45;9.82;;;;;;;9.25;100.00;101162.00;4859214;29;20045;-80
2022/05/25 02:48:40;;;;;;;11.05;9.35;;;;;;;9.24;100.00;101174.25;4869955;29;20053;-81
2022/05/25 02:51:08;;;;;;;12.73;9.73;;;;;;;9.22;100.00;101170.72;4850756;29;20538;-79
2022/05/25 02:53:43;;;;;;;12.68;9.95;;;;;;;9.21;100.00;101170.72;4817490;29;20116;-80
2022/05/25 02:56:12;;;;;;;16.88;10.68;;;;;;;9.20;100.00;101175.09;4855993;29;20056;-80
2022/05/25 02:58:40;;;;;;;10.75;9.85;;;;;;;9.20;100.00;101176.84;4856766;29;20052;-80
2022/05/25 03:01:08;;;;;;;12.15;10.25;;;;;;;9.16;100.00;101175.91;4843374;29;20487;-79
2022/05/25 03:03:39;;;;;;;;;;;;;;;9.15;100.00;101187.31;4838862;29;20053;-80
2022/05/25 03:06:09;;;;;;;13.85;11.50;;;;;;;9.14;100.00;101193.41;4840468;29;19924;-79
2022/05/25 03:08:37;;;;;;;12.95;10.00;;;;;;;9.12;100.00;101193.38;4851115;29;20502;-79
2022/05/25 03:11:07;;;;;;;12.18;10.95;;;;;;;9.13;100.00;101194.25;4888054;29;20053;-79
2022/05/25 03:13:36;;;;;;;16.33;10.90;;;;;;;9.11;100.00;101195.97;4867510;29;20041;-79
2022/05/25 03:16:07;;;;;;;16.50;12.35;;;;;;;9.11;100.00;101190.72;4867872;29;20172;-81
2022/05/25 03:18:36;;;;;;;15.75;12.18;;;;;;;9.08;100.00;101198.59;4872564;29;20061;-81
2022/05/25 03:21:04;;;;;;;12.68;11.48;;;;;;;9.06;100.00;101197.69;4843253;29;20690;-80
2022/05/25 03:23:33;;;;;;;15.10;11.93;;;;;;;9.06;100.00;101201.19;4857096;29;20074;-80
2022/05/25 03:26:01;;;;;;;16.55;13.27;;;;;;;9.05;100.00;101196.78;4859904;29;20153;-80
2022/05/25 03:28:30;;;;;;;16.30;13.02;;;;;;;9.05;100.00;101201.16;4889907;29;20049;-80
2022/05/25 03:30:58;;;;;;;16.15;12.73;;;;;;;9.06;100.00;101202.94;4861968;29;20041;-79
2022/05/25 03:33:27;;;;;;;14.80;13.23;;;;;;;9.07;100.00;101202.06;4872281;29;20049;-80
2022/05/25 03:35:55;;;;;;;16.48;13.50;;;;;;;9.07;100.00;101202.06;4856019;29;20171;-78
2022/05/25 03:38:24;;;;;;;16.70;14.18;;;;;;;9.09;100.00;101206.50;4869002;29;20056;-79
2022/05/25 03:40:55;;;;;;;16.70;13.60;;;;;;;9.07;100.00;101202.94;4830171;29;20053;-79
2022/05/25 03:43:29;;;;;;;18.20;13.25;;;;;;;9.08;100.00;101201.22;4859384;29;20499;-80
2022/05/25 03:45:57;;;;;;;18.98;14.50;;;;;;;9.09;100.00;101209.13;4872418;29;20079;-80
2022/05/25 03:48:27;;;;;;;16.38;14.60;;;;;;;9.10;100.00;101210.00;4875174;29;20060;-80
2022/05/25 03:50:55;;;;;;;18.95;14.63;;;;;;;9.10;100.00;101212.63;4872874;29;20184;-79
2022/05/25 03:53:24;;;;;;;15.43;13.65;;;;;;;9.10;100.00;101216.13;4860484;29;20060;-80
2022/05/25 03:55:52;;;;;;;18.50;14.18;;;;;;;9.12;100.00;101218.78;4825452;29;20090;-80
2022/05/25 03:58:21;;;;;;;17.80;14.45;;;;;;;9.11;100.00;101217.91;4875001;29;20511;-79
2022/05/25 04:00:49;;;;;;;16.83;13.70;;;;;;;9.12;100.00;101217.03;4869723;29;20141;-81
2022/05/25 04:03:22;;;;;;;17.00;14.32;;;;;;;9.13;100.00;101221.47;4868096;29;20088;-80
2022/05/25 04:05:50;;;;;;;16.30;13.85;;;;;;;9.14;100.00;101217.94;4870711;29;20076;-81
2022/05/25 04:08:19;;;;;;;18.00;14.88;;;;;;;9.18;100.00;101224.13;4859963;29;20049;-79
2022/05/25 04:10:47;;;;;;;17.42;14.30;;;;;;;9.20;100.00;101230.31;4830069;29;20373;-79
2022/05/25 04:13:16;;;;;;;20.67;14.57;;;;;;;9.22;100.00;101220.69;4871356;29;20521;-80
2022/05/25 04:15:45;;;;;;;18.33;14.90;;;;;;;9.25;100.00;101222.50;4846329;29;20041;-79
2022/05/25 04:18:13;;;;;;;17.58;15.30;;;;;;;9.28;100.00;101226.06;4844358;29;20049;-80
2022/05/25 04:20:42;;;;;;;16.55;13.52;;;;;;;9.29;100.00;101222.56;4888741;29;20060;-80
2022/05/25 04:23:11;;;;;;;20.35;14.63;;;;;;;9.33;100.00;101219.09;4876632;29;20045;-79
2022/05/25 04:25:41;;;;;;;15.65;14.05;;;;;;;9.36;100.00;101213.03;4849429;29;20422;-81
2022/05/25 04:28:09;;;;;;;20.13;14.23;;;;;;;9.43;100.00;101216.59;4865492;29;20049;-81
2022/05/25 04:30:38;;;;;;;17.30;13.93;;;;;;;9.51;100.00;101222.88;4841927;29;20053;-79
2022/05/25 04:33:06;;;;;;;20.10;13.77;;;;;;;9.54;100.00;101218.50;4849827;29;20068;-80
2022/05/25 04:35:35;;;;;;;17.40;13.88;;;;;;;9.59;100.00;101215.06;4841861;29;20064;-80
2022/05/25 04:38:06;;;;;;;18.58;15.48;;;;;;;9.64;100.00;101211.66;4857685;29;20071;-79
2022/05/25 04:40:38;;;;;;;22.52;14.82;;;;;;;9.67;100.00;101209.03;4869333;29;20055;-80
2022/05/25 04:43:12;;;;;;;20.20;15.07;;;;;;;9.72;100.00;101215.25;4856757;29;20067;-79
2022/05/25 04:45:42;;;;;;;17.13;13.25;;;;;;;9.81;100.00;101218.84;4873385;29;20530;-80
2022/05/25 04:48:14;;;;;;;16.35;14.60;;;;;;;9.92;100.00;101223.41;4859267;29;20049;-81
2022/05/25 04:50:44;;;;;;;19.23;13.60;;;;;;;9.99;100.00;101216.44;4854974;29;20132;-82
2022/05/25 04:53:15;;;;;;;22.42;13.60;;;;;;;10.10;100.00;101221.84;4860756;29;20506;-79
2022/05/25 04:58:34;;;;;;;14.00;12.38;;;;;;;10.96;100.00;101219.13;4862713;29;20048;-81
2022/05/25 05:01:09;;;;;;;15.75;13.00;;;;;;;11.61;100.00;101218.66;4870875;29;20057;-79
2022/05/25 05:03:39;;;;;;;14.80;11.85;;;;;;;12.56;100.00;101225.16;4851845;29;20411;-80
2022/05/25 05:06:09;;;;;;;12.38;10.98;;;;;;;13.47;100.00;101211.88;4843602;29;20495;-80
2022/05/25 05:08:39;;;;;;;10.93;9.63;;;;;;;14.33;100.00;101217.66;4857846;29;20045;-80
2022/05/25 05:11:11;;;;;;;9.63;8.63;;;;;;;15.02;100.00;101213.59;4871759;29;20045;-80
2022/05/25 05:13:40;;;;;;;9.82;8.43;;;;;;;15.70;100.00;101219.06;4879387;29;20049;-79
2022/05/25 05:16:15;;;;;;;9.48;8.57;;;;;;;16.26;100.00;101221.91;4874313;29;20400;-79
2022/05/25 05:18:45;;;;;;;9.30;8.38;;;;;;;16.77;100.00;101215.81;4844601;29;20041;-78
2022/05/25 05:21:39;;;;;;;9.52;8.63;;;;;;;17.25;100.00;101201.69;4861036;29;20045;-80
2022/05/25 05:24:07;;;;;;;9.40;8.38;;;;;;;17.56;100.00;101214.41;4885335;29;20495;-80
2022/05/25 05:26:36;;;;;;;7.45;6.78;;;;;;;17.97;100.00;101205.56;4827949;29;20045;-80
2022/05/25 05:29:04;;;;;;;9.90;7.82;;;;;;;18.41;100.00;101211.72;4872827;29;20077;-80
2022/05/25 05:31:33;;;;;;;8.90;7.05;;;;;;;18.60;100.00;101212.16;4862532;29;20048;-80
2022/05/25 05:34:02;;;;;;;9.57;6.95;;;;;;;18.92;100.00;101205.13;4861991;29;20072;-81
2022/05/25 05:36:36;;;;;;;7.70;6.95;;;;;;;19.25;100.00;101214.06;4858265;29;20393;-80
2022/05/25 05:39:06;;;;;;;9.80;7.22;;;;;;;19.44;100.00;101208.22;4873238;29;20358;-80
2022/05/25 05:41:50;;;;;;;7.18;6.47;;;;;;;19.62;92.92;101223.75;4855004;29;21327;-80
2022/05/25 05:44:22;;;;;;;7.00;6.35;;;;;;;19.55;93.46;101218.59;4866136;29;20050;-80
2022/05/25 05:46:53;;;;;;;8.23;6.43;;;;;;;19.46;91.90;101209.91;4828807;29;20048;-80
2022/05/25 05:49:28;;;;;;;6.93;6.32;;;;;;;19.32;90.23;101214.78;4842117;29;20514;-81
2022/05/25 05:51:57;;;;;;;7.07;6.38;;;;;;;18.87;90.60;101215.06;4876690;29;20045;-80
2022/05/25 05:54:26;;;;;;;8.55;7.25;;;;;;;18.49;91.90;101230.22;4859454;29;20044;-79
2022/05/25 05:56:54;;;;;;;7.35;6.63;;;;;;;18.04;92.49;101225.00;4861401;29;20041;-80
2022/05/25 05:59:23;;;;;;;7.55;6.85;;;;;;;17.65;92.71;101223.09;4844212;29;20499;-79
2022/05/25 06:01:53;;;;;;;10.45;7.03;;;;;;;17.14;94.07;101226.75;4850051;29;20040;-80
2022/05/25 06:04:22;;;;;;;7.17;6.47;;;;;;;16.71;95.51;101227.44;4851222;29;20061;-80
2022/05/25 06:06:50;;;;;;;8.07;7.03;;;;;;;16.46;97.83;101226.91;4863360;29;20048;-80
2022/05/25 06:09:19;;;;;;;9.52;6.28;;;;;;;16.28;98.39;101221.91;4841588;29;20053;-80
2022/05/25 06:11:48;;;;;;;7.88;7.10;;;;;;;16.29;100.00;101231.63;4878295;29;20414;-80
2022/05/25 06:14:16;;;;;;;8.15;5.95;;;;;;;16.46;100.00;101234.03;4859471;29;20053;-80
2022/05/25 06:19:33;;;;;;;7.15;6.45;;;;;;;16.58;100.00;101233.84;4845614;29;20049;-79
2022/05/25 06:22:07;;;;;;;8.93;7.13;;;;;;;16.75;99.93;101234.47;4830380;29;20040;-80
2022/05/25 06:24:51;;;;;;;7.38;6.35;;;;;;;16.84;98.52;101233.47;4862807;29;20053;-80
2022/05/25 06:27:20;;;;;;;7.30;6.18;;;;;;;16.58;98.18;101236.53;4858600;29;20403;-80
2022/05/25 06:29:52;;;;;;;8.13;6.32;;;;;;;16.43;99.33;101232.31;4849727;29;20541;-80
2022/05/25 06:32:23;;;;;;;10.65;6.85;;;;;;;16.45;100.00;101242.94;4865934;29;20064;-80
2022/05/25 06:34:51;;;;;;;7.50;6.28;;;;;;;16.45;100.00;101240.28;4857739;29;20049;-80
2022/05/25 06:37:23;;;;;;;7.72;5.95;;;;;;;16.23;99.73;101243.22;4855802;29;20060;-78
2022/05/25 06:39:54;;;;;;;7.25;6.13;;;;;;;15.96;100.00;101240.03;4883715;29;20052;-79
2022/05/25 06:42:23;;;;;;;8.98;6.15;;;;;;;15.85;100.00;101249.03;4853981;29;20068;-78
2022/05/25 06:44:54;;;;;;;11.38;7.30;;;;;;;15.87;100.00;101248.13;4843886;29;20060;-80
2022/05/25 06:47:22;;;;;;;7.15;6.18;;;;;;;15.83;100.00;101249.06;4849630;29;20045;-78
2022/05/25 06:49:52;;;;;;;7.07;6.38;;;;;;;15.79;100.00;101247.34;4839375;29;20037;-79
2022/05/25 06:52:23;;;;;;;6.80;6.20;;;;;;;15.75;100.00;101248.28;4841330;29;20061;-79
2022/05/25 06:54:55;;;;;;;7.15;6.43;;;;;;;15.73;100.00;101247.38;4856430;29;20045;-79
2022/05/25 06:57:25;;;;;;;8.32;6.35;;;;;;;15.74;100.00;101242.06;4873657;29;20514;-78
2022/05/25 06:59:54;;;;;;;6.57;5.77;;;;;;;15.66;100.00;101265.16;4871622;29;20052;-78
2022/05/25 07:02:24;;;;;;;9.85;5.78;;;;;;;15.61;100.00;101251.03;4869590;29;20049;-79
2022/05/25 07:04:54;;;;;;;10.32;6.43;;;;;;;15.67;100.00;101256.31;4858909;29;20060;-79
2022/05/25 07:07:24;;;;;;;9.43;5.47;;;;;;;15.70;100.00;101256.25;4830988;29;20038;-78
2022/05/25 07:09:52;;;;;;;8.88;5.40;;;;;;;15.82;100.00;101249.06;4857551;29;20064;-78
2022/05/25 07:12:21;;;;;;;7.45;5.68;;;;;;;15.87;100.00;101249.91;4859982;29;20049;-78
2022/05/25 07:14:50;;;;;;;5.80;5.20;;;;;;;15.90;100.00;101263.16;4870400;29;20127;-78
2022/05/25 07:17:18;;;;;;;5.88;5.30;;;;;;;15.81;100.00;101255.31;4852911;29;20037;-78
2022/05/25 07:19:46;;;;;;;7.03;4.97;;;;;;;15.73;100.00;101255.38;4850593;29;20049;-78
2022/05/25 07:22:15;;;;;;;5.55;4.95;;;;;;;15.73;100.00;101266.00;4863795;29;20041;-79
2022/05/25 07:24:47;;;;;;;9.98;5.38;;;;;;;15.72;100.00;101264.22;4844001;29;20053;-79
2022/05/25 07:27:15;;;;;;;10.43;4.63;;;;;;;15.73;100.00;101263.34;4861075;29;20075;-78
2022/05/25 07:29:44;;;;;;;5.40;3.97;;;;;;;15.86;100.00;101264.06;4873738;29;20037;-78
2022/05/25 07:32:14;;;;;;;8.25;4.70;;;;;;;15.91;100.00;101268.44;4869703;29;20336;-79
2022/05/25 07:34:47;;;;;;;6.38;4.38;;;;;;;16.00;100.00;101269.25;4845656;29;20056;-79
2022/05/25 07:37:21;;;;;;;5.78;4.25;;;;;;;16.04;100.00;101270.97;4886130;29;20056;-79
2022/05/25 07:39:52;;;;;;;7.45;4.82;;;;;;;16.02;100.00;101275.41;4833755;29;20052;-78
2022/05/25 07:42:22;;;;;;;6.88;5.03;;;;;;;15.98;100.00;101263.94;4874393;29;20057;-79
2022/05/25 07:44:56;;;;;;;5.75;4.65;;;;;;;15.95;100.00;101272.84;4866152;29;20542;-79
2022/05/25 07:47:27;;;;;;;4.82;4.18;;;;;;;16.08;100.00;101268.22;4871210;29;20518;-79
2022/05/25 07:49:55;;;;;;;4.85;3.97;;;;;;;16.20;100.00;101280.50;4858436;29;20261;-79
2022/05/25 07:52:27;;;;;;;6.70;3.67;;;;;;;16.24;100.00;101265.34;4829202;29;20515;-78
2022/05/25 07:54:56;;;;;;;6.18;3.80;;;;;;;16.32;100.00;101269.69;4837795;29;20514;-79
2022/05/25 07:57:25;;;;;;;5.57;3.65;;;;;;;16.41;100.00;101270.44;4877687;29;20060;-79
2022/05/25 07:59:53;;;;;;;4.20;3.55;;;;;;;16.48;100.00;101269.47;4853525;29;20048;-78
2022/05/25 08:08:07;;;;;;;5.38;3.30;;;;;;;16.52;98.54;101268.50;4864205;29;20260;-79
2022/05/25 08:10:36;;;;;;;6.20;3.50;;;;;;;16.60;100.00;101269.28;4818513;29;20053;-80
2022/05/25 08:13:05;;;;;;;3.97;3.42;;;;;;;16.73;99.88;101275.31;4854142;29;20289;-78
2022/05/25 08:15:33;;;;;;;5.60;3.67;;;;;;;16.79;99.61;101277.88;4880970;29;20506;-79
2022/05/25 08:18:02;;;;;;;4.53;3.15;;;;;;;16.82;99.24;101277.84;4865766;29;20057;-80
2022/05/25 08:20:31;;;;;;;7.13;3.60;;;;;;;16.86;98.71;101274.25;4860202;29;20046;-78
2022/05/25 08:23:02;;;;;;;3.70;3.22;;;;;;;16.95;98.13;101275.88;4833128;29;20041;-80
2022/05/25 08:25:31;;;;;;;6.47;3.05;;;;;;;17.03;96.61;101273.97;4864593;29;20060;-80
2022/05/25 08:28:00;;;;;;;4.70;3.47;;;;;;;17.02;95.35;101279.31;4839297;29;20196;-79
2022/05/25 08:30:30;;;;;;;2.53;2.33;;;;;;;17.04;94.08;101258.88;4873409;29;20068;-79
2022/05/25 08:33:01;;;;;;;4.63;3.35;;;;;;;16.94;93.42;101268.81;4875244;29;20249;-80
2022/05/25 08:35:30;;;;;;;2.75;2.22;;;;;;;16.95;94.12;101262.56;4838999;29;20076;-80
2022/05/25 08:37:59;;;;;;;6.35;2.58;;;;;;;16.95;93.41;101268.75;4823183;29;20056;-80
2022/05/25 08:40:30;;;;;;;4.70;2.10;;;;;;;16.98;91.24;101273.16;4858447;29;20053;-80
2022/05/25 08:43:08;;;;;;;2.33;1.90;;;;;;;16.94;89.64;101271.47;4857744;29;20621;-78
2022/05/25 08:45:44;;;;;;;4.13;3.28;;;;;;;16.93;89.54;101269.69;4866076;29;20056;-79
2022/05/25 08:48:16;;;;;;;6.20;2.58;;;;;;;16.94;89.49;101268.81;4876006;29;20048;-79
2022/05/25 08:50:50;;;;;;;3.58;1.92;;;;;;;16.93;90.17;101264.38;4867668;29;20418;-79
2022/05/25 08:53:21;;;;;;;3.55;2.08;;;;;;;16.91;88.30;101266.19;4862953;29;20048;-79
2022/05/25 08:56:12;;;;;;;3.50;2.20;;;;;;;16.99;87.23;101266.91;4847605;29;20403;-79
2022/05/25 08:59:00;;;;;;;3.88;1.95;;;;;;;16.97;85.05;101270.53;4873066;29;20407;-80
2022/05/25 09:01:57;;;;;;;6.13;2.47;;;;;;;17.03;86.34;101273.06;4874006;29;20056;-78
2022/05/25 09:04:29;;;;;;;3.05;2.20;;;;;;;17.09;88.63;101276.53;4862738;29;20420;-78
2022/05/25 09:07:36;;;;;;;2.33;2.10;;;;;;;17.18;88.04;101272.81;4865627;29;20033;-79
2022/05/25 09:10:06;;;;;;;5.18;2.92;;;;;;;17.31;88.04;101277.00;4872651;29;20068;-79
2022/05/25 09:12:40;;;;;;;4.28;2.30;;;;;;;17.43;87.87;101278.59;4836486;29;20071;-79
2022/05/25 09:15:12;;;;;;;2.28;2.08;;;;;;;17.55;88.43;101274.81;4857325;29;20053;-80
2022/05/25 09:17:41;;;;;;;2.20;2.00;;;;;;;17.64;86.90;101273.78;4871576;29;20045;-79
2022/05/25 09:20:14;;;;;;;2.60;2.40;;;;;;;17.79;88.38;101270.81;4884138;29;20041;-79
2022/05/25 09:22:47;;;;;;;3.38;2.42;;;;;;;17.96;88.45;101275.81;4849839;29;20399;-78
2022/05/25 09:25:16;;;;;;;5.20;2.42;;;;;;;18.05;86.43;101277.41;4865648;29;20060;-77
2022/05/25 09:27:58;;;;;;;3.47;2.25;;;;;;;18.11;85.72;101279.97;4821569;29;20053;-78
2022/05/25 09:30:27;;;;;;;2.08;1.85;;;;;;;18.08;84.11;101274.69;4864031;29;20566;-78
2022/05/25 09:33:02;;;;;;;3.20;2.30;;;;;;;17.99;82.16;101281.06;4870796;29;20052;-78
2022/05/25 09:35:41;;;;;;;2.33;2.10;;;;;;;17.87;80.94;101273.34;4871754;29;20130;-78
2022/05/25 09:38:27;;;;;;;3.13;2.42;;;;;;;17.74;82.73;101276.22;4871276;29;20052;-79
2022/05/25 09:40:56;;;;;;;2.25;2.05;;;;;;;17.60;84.38;101280.94;4882254;29;20048;-79
2022/05/25 09:43:25;;;;;;;2.75;2.20;;;;;;;17.68;84.74;101286.13;4851596;29;20184;-78
2022/05/25 09:46:08;;;;;;;4.60;2.15;;;;;;;17.80;83.57;101280.53;4870585;29;20049;-78
2022/05/25 09:48:49;;;;;;;5.32;2.20;;;;;;;17.92;82.25;101272.34;4842946;29;20149;-78
2022/05/25 09:51:22;;;;;;;3.92;2.00;;;;;;;17.87;81.98;101273.34;4869904;29;20056;-78
2022/05/25 09:54:28;;;;;;;4.53;2.15;;;;;;;17.76;80.54;101280.66;4848100;29;20415;-80
2022/05/25 09:57:07;;;;;;;2.53;1.70;;;;;;;17.68;81.94;101287.00;4876636;29;20049;-78
2022/05/25 10:00:10;;;;;;;4.13;1.80;;;;;;;17.68;82.41;101275.47;4855438;29;20056;-79
2022/05/25 10:02:57;;;;;;;2.47;2.28;;;;;;;17.75;83.75;101279.78;4864844;29;20068;-77
2022/05/25 10:05:30;;;;;;;3.28;2.53;;;;;;;17.81;83.32;101276.97;4871478;29;20057;-78
2022/05/25 10:08:15;;;;;;;3.38;2.17;;;;;;;17.75;81.30;101277.09;4861536;29;20060;-79
2022/05/25 10:10:56;;;;;;;5.80;2.30;;;;;;;17.72;83.15;101282.50;4871936;29;20033;-78
2022/05/25 10:13:41;;;;;;;4.32;1.92;;;;;;;17.72;83.12;101283.34;4879113;29;20041;-78
2022/05/25 10:16:39;;;;;;;2.17;1.88;;;;;;;17.61;76.27;101285.34;4826889;29;20045;-79
2022/05/25 10:19:13;;;;;;;4.35;1.80;;;;;;;17.51;80.88;101283.78;4875051;29;20060;-80
2022/05/25 10:21:58;;;;;;;1.90;1.80;;;;;;;17.43;80.60;101275.03;4853891;29;20278;-79
2022/05/25 10:24:40;;;;;;;2.80;1.77;;;;;;;17.43;82.41;101281.25;4843060;29;20060;-79
2022/05/25 10:27:29;;;;;;;3.90;2.10;;;;;;;17.60;83.80;101285.38;4872031;29;20045;-79
2022/05/25 10:38:30;;;;;;;2.28;1.85;;;;;;;17.98;81.91;101268.66;4873642;29;20045;-80
2022/05/25 10:41:37;;;;;;;2.70;1.92;;;;;;;18.03;80.37;101273.88;4844899;29;20560;-80
2022/05/25 10:44:22;;;;;;;3.58;2.13;;;;;;;18.03;78.67;101271.22;4870151;29;20424;-80
2022/05/25 10:46:57;;;;;;;3.58;1.92;;;;;;;18.08;80.58;101264.88;4872543;29;20312;-81
2022/05/25 10:49:42;;;;;;;4.13;2.05;;;;;;;18.10;81.19;101257.72;4849612;29;20049;-80
2022/05/25 10:52:35;;;;;;;3.85;1.92;;;;;;;18.11;81.04;101266.63;4877917;29;20057;-78
2022/05/25 10:55:05;;;;;;;4.13;2.28;;;;;;;18.17;81.84;101255.81;4885179;29;20041;-79
2022/05/25 10:57:57;;;;;;;3.10;2.15;;;;;;;18.23;79.89;101253.00;4866161;29;20522;-79
2022/05/25 11:00:37;;;;;;;3.63;2.00;;;;;;;18.15;78.83;101256.75;4862967;29;20514;-80
2022/05/25 11:03:25;;;;;;;;;;;;;;;18.04;79.57;101257.00;4843638;29;20107;-79
2022/05/25 11:06:02;;;;;;;4.20;2.05;;;;;;;17.80;80.89;101261.00;4857652;29;19927;-80
2022/05/25 11:08:56;;;;;;;3.50;2.25;;;;;;;17.63;82.32;101256.88;4855573;29;20252;-81
2022/05/25 11:11:50;;;;;;;4.20;2.22;;;;;;;17.54;82.42;101252.63;4837520;29;20057;-79
2022/05/25 11:14:50;;;;;;;3.42;2.00;;;;;;;17.52;83.21;101256.22;4862912;29;20049;-79
2022/05/25 11:17:22;;;;;;;2.40;2.03;;;;;;;17.57;83.40;101266.81;4849517;29;20053;-78
2022/05/25 11:20:13;;;;;;;2.97;2.20;;;;;;;17.56;82.75;101254.38;4847771;29;20061;-78
2022/05/25 11:22:57;;;;;;;2.30;2.10;;;;;;;17.55;83.29;101258.81;4871717;29;20049;-79
2022/05/25 11:25:33;;;;;;;3.17;1.92;;;;;;;17.54;83.70;101247.31;4866880;29;20072;-79
2022/05/25 11:28:17;;;;;;;4.70;2.38;;;;;;;17.48;83.19;101258.06;4837138;29;20119;-79
2022/05/25 11:31:31;;;;;;;3.10;2.47;;;;;;;17.40;81.83;101270.66;4878006;29;20048;-80
2022/05/25 11:34:24;;;;;;;3.65;1.98;;;;;;;17.10;83.15;101280.94;4849539;29;20525;-81
2022/05/25 11:37:08;;;;;;;3.88;2.10;;;;;;;16.80;87.48;101295.59;4869944;29;20068;-79
2022/05/25 11:40:03;;;;;;;6.97;2.35;;;;;;;16.28;91.61;101320.28;4871365;29;20049;-80
2022/05/25 11:43:05;;;;;;;7.20;3.30;;;;;;;15.81;97.33;101327.03;4861769;29;20480;-80
2022/05/25 11:45:57;;;;;;;7.40;5.00;;;;;;;15.34;100.00;101300.03;4862728;29;20083;-80
2022/05/25 11:49:22;;;;;;;5.50;4.88;;;;;;;14.99;100.00;101266.72;4855808;29;20046;-80
2022/05/25 11:52:14;;;;;;;5.70;4.90;;;;;;;14.76;100.00;101275.75;4861609;29;20056;-80
2022/05/25 11:54:43;;;;;;;5.68;4.30;;;;;;;14.70;100.00;101265.16;4858154;29;20049;-80
2022/05/25 11:57:45;;;;;;;6.28;3.90;;;;;;;14.81;100.00;101271.25;4856536;29;20052;-84
2022/05/25 12:00:34;;;;;;;5.10;4.68;;;;;;;15.08;100.00;101266.63;4844108;29;20052;-79
2022/05/25 12:03:30;;;;;;;4.63;4.20;;;;;;;15.25;100.00;101270.91;4859515;29;20061;-79
2022/05/25 12:06:09;;;;;;;4.50;4.10;;;;;;;15.38;100.00;101264.56;4834509;29;20061;-80
2022/05/25 12:09:16;;;;;;;4.85;4.28;;;;;;;15.51;100.00;101260.03;4872756;29;20271;-80
2022/05/25 12:12:01;;;;;;;10.98;5.00;;;;;;;15.82;100.00;101257.91;4820031;29;20057;-80
2022/05/25 12:14:54;;;;;;;7.15;4.55;;;;;;;16.01;100.00;101263.00;4856953;29;20295;-81
2022/05/25 12:17:23;;;;;;;7.57;4.28;;;;;;;16.09;100.00;101258.50;4865195;29;20456;-81
2022/05/25 12:19:55;;;;;;;6.22;4.78;;;;;;;16.13;100.00;101261.06;4874646;29;20057;-80